Time;durP1;ratioP1;P1;durP2;ratioP2;P2;SDS_P1;SDS_P2;PMS_P1;PMS_P2;Temp;Humidity;BMP_temperature;BMP_pressure;BME280_temperature;BME280_humidity;BME280_pressure;Samples;Min_cycle;Max_cycle;Signal;HPM_P1;HPM_P2
2022/04/06 00:02:25;;;;;;;;;;;;;;;;;;4968890;28;19973;-89
2022/04/06 00:04:52;;;;;;;;;;;;;;;;;;4965302;28;19919;-89
2022/04/06 00:07:27;;;;;;;;;;;;;;;;;;4953251;28;19919;-88
2022/04/06 00:09:52;;;;;;;;;;;;;;;;;;4965174;28;20420;-88
2022/04/06 00:12:17;;;;;;;;;;;;;;;;;;4945227;28;19945;-89
2022/04/06 00:14:46;;;;;;;;;;;;;;;;;;4956406;28;19958;-91
2022/04/06 00:17:12;;;;;;;;;;;;;;;;;;4961390;28;20382;-90
2022/04/06 00:19:38;;;;;;;;;;;;;;;;;;4973445;28;19918;-90
2022/04/06 00:22:12;;;;;;;;;;;;;;;;;;4958787;28;19985;-90
2022/04/06 00:24:42;;;;;;;;;;;;;;;;;;4944110;28;19914;-89
2022/04/06 00:27:13;;;;;;;;;;;;;;;;;;4947902;28;19921;-90
2022/04/06 00:29:39;;;;;;;;;;;;;;;;;;4959778;28;20535;-89
2022/04/06 00:32:04;;;;;;;;;;;;;;;;;;4961613;28;19930;-88
2022/04/06 00:37:37;;;;;;;;;;;;;;;;;;4977998;28;20716;-90
2022/04/06 00:40:03;;;;;;;;;;;;;;;;;;4948780;28;20063;-89
2022/04/06 00:42:31;;;;;;;;;;;;;;;;;;4977473;28;19926;-88
2022/04/06 00:45:00;;;;;;;;;;;;;;;;;;4953664;28;20387;-89
2022/04/06 00:47:25;;;;;;;;;;;;;;;;;;4947599;28;20374;-92
2022/04/06 00:49:50;;;;;;;;;;;;;;;;;;4969105;28;20026;-90
2022/04/06 00:52:25;;;;;;;;;;;;;;;;;;4957837;28;20038;-89
2022/04/06 00:54:50;;;;;;;;;;;;;;;;;;4959919;28;19918;-89
2022/04/06 00:57:15;;;;;;;;;;;;;;;;;;4944447;28;19936;-89
2022/04/06 00:59:45;;;;;;;;;;;;;;;;;;4945428;28;20371;-92
2022/04/06 01:02:10;;;;;;;;;;;;;;;;;;4966149;28;20065;-92
2022/04/06 01:04:36;;;;;;;;;;;;;;;;;;4945846;28;20324;-91
2022/04/06 01:07:12;;;;;;;;;;;;;;;;;;4943444;28;20151;-89
2022/04/06 01:09:38;;;;;;;;;;;;;;;;;;4960089;28;19918;-91
2022/04/06 01:12:14;;;;;;;;;;;;;;;;;;4965713;28;20028;-90
2022/04/06 01:14:42;;;;;;;;;;;;;;;;;;4974592;28;19914;-89
2022/04/06 01:17:11;;;;;;;;;;;;;;;;;;4980269;28;20017;-88
2022/04/06 01:19:36;;;;;;;;;;;;;;;;;;4954392;28;20221;-90
2022/04/06 01:22:01;;;;;;;;;;;;;;;;;;4962501;28;19963;-89
2022/04/06 01:24:27;;;;;;;;;;;;;;;;;;4979034;28;20002;-87
2022/04/06 01:27:01;;;;;;;;;;;;;;;;;;4968584;28;19968;-90
2022/04/06 01:29:26;;;;;;;;;;;;;;;;;;4959193;28;19977;-89
2022/04/06 01:31:51;;;;;;;;;;;;;;;;;;4947516;28;19918;-91
2022/04/06 01:34:26;;;;;;;;;;;;;;;;;;4946348;28;19915;-90
2022/04/06 01:36:52;;;;;;;;;;;;;;;;;;4947736;28;19924;-89
2022/04/06 01:39:20;;;;;;;;;;;;;;;;;;4963395;28;19981;-90
2022/04/06 01:41:46;;;;;;;;;;;;;;;;;;4959438;28;20026;-89
2022/04/06 01:44:13;;;;;;;;;;;;;;;;;;4977107;28;19929;-91
2022/04/06 01:46:44;;;;;;;;;;;;;;;;;;4958094;28;19933;-90
2022/04/06 01:52:12;;;;;;;;;;;;;;;;;;4943260;28;19922;-91
2022/04/06 01:54:37;;;;;;;;;;;;;;;;;;4958424;28;19926;-93
2022/04/06 01:57:12;;;;;;;;;;;;;;;;;;4933682;28;19925;-88
2022/04/06 01:59:42;;;;;;;;;;;;;;;;;;4940430;28;20009;-91
2022/04/06 02:02:16;;;;;;;;;;;;;;;;;;4950329;28;19997;-91
2022/04/06 02:04:41;;;;;;;;;;;;;;;;;;4945684;28;19915;-90
2022/04/06 02:07:16;;;;;;;;;;;;;;;;;;4929708;28;20446;-89
2022/04/06 02:09:41;;;;;;;;;;;;;;;;;;4928827;28;19919;-92
2022/04/06 02:12:06;;;;;;;;;;;;;;;;;;4945125;28;19993;-91
2022/04/06 02:14:58;;;;;;;;;;;;;;;;;;4926909;28;19929;-90
2022/04/06 02:17:27;;;;;;;;;;;;;;;;;;4948535;28;19918;-91
2022/04/06 02:20:02;;;;;;;;;;;;;;;;;;4959072;28;19915;-90
2022/04/06 02:22:28;;;;;;;;;;;;;;;;;;4961199;28;20004;-90
2022/04/06 02:25:02;;;;;;;;;;;;;;;;;;4969727;28;19919;-89
2022/04/06 02:27:28;;;;;;;;;;;;;;;;;;4961680;28;19972;-88
2022/04/06 02:29:54;;;;;;;;;;;;;;;;;;4947378;29;19913;-91
2022/04/06 02:32:22;;;;;;;;;;;;;;;;;;4975319;28;19969;-91
2022/04/06 02:34:52;;;;;;;;;;;;;;;;;;4970033;28;19915;-92
2022/04/06 02:37:27;;;;;;;;;;;;;;;;;;4957750;29;19998;-88
2022/04/06 02:39:53;;;;;;;;;;;;;;;;;;4972622;28;19914;-89
2022/04/06 02:42:34;;;;;;;;;;;;;;;;;;4969474;28;20021;-90
2022/04/06 02:45:00;;;;;;;;;;;;;;;;;;4962589;28;19914;-88
2022/04/06 02:47:33;;;;;;;;;;;;;;;;;;4980604;28;19933;-87
2022/04/06 02:50:29;;;;;;;;;;;;;;;;;;;;;
2022/04/06 02:53:16;;;;;;;;;;;;;;;;;;4966338;28;19937;-89
2022/04/06 02:55:42;;;;;;;;;;;;;;;;;;4970674;28;20613;-91
2022/04/06 02:58:34;;;;;;;;;;;;;;;;;;4947986;28;20754;-87
2022/04/06 03:01:03;;;;;;;;;;;;;;;;;;4951923;28;20199;-91
2022/04/06 03:03:28;;;;;;;;;;;;;;;;;;4948287;28;19914;-91
2022/04/06 03:05:57;;;;;;;;;;;;;;;;;;4961579;28;19933;-90
2022/04/06 03:08:43;;;;;;;;;;;;;;;;;;4921349;29;19946;-91
2022/04/06 03:11:10;;;;;;;;;;;;;;;;;;4907367;29;19985;-92
2022/04/06 03:13:38;;;;;;;;;;;;;;;;;;4922023;29;20318;-91
2022/04/06 03:16:05;;;;;;;;;;;;;;;;;;4913062;29;19923;-91
2022/04/06 03:18:30;;;;;;;;;;;;;;;;;;4911019;29;19974;-89
2022/04/06 03:20:56;;;;;;;;;;;;;;;;;;4923502;29;19915;-90
2022/04/06 03:23:43;;;;;;;;;;;;;;;;;;4926492;29;20058;-91
2022/04/06 03:26:09;;;;;;;;;;;;;;;;;;4920431;29;19923;-89
2022/04/06 03:28:34;;;;;;;;;;;;;;;;;;4894211;29;19926;-89
2022/04/06 03:31:09;;;;;;;;;;;;;;;;;;4917696;29;20026;-89
2022/04/06 03:33:34;;;;;;;;;;;;;;;;;;4905337;29;20002;-89
2022/04/06 03:36:16;;;;;;;;;;;;;;;;;;4909154;29;19938;-91
2022/04/06 03:38:41;;;;;;;;;;;;;;;;;;4913476;28;19923;-91
2022/04/06 03:41:12;;;;;;;;;;;;;;;;;;4957287;29;20321;-90
2022/04/06 03:43:37;;;;;;;;;;;;;;;;;;4970747;28;19953;-90
2022/04/06 03:46:03;;;;;;;;;;;;;;;;;;4987966;28;19922;-89
2022/04/06 03:51:35;;;;;;;;;;;;;;;;;;4985265;28;19925;-90
2022/04/06 03:54:08;;;;;;;;;;;;;;;;;;4971546;28;20028;-91
2022/04/06 03:56:38;;;;;;;;;;;;;;;;;;4970872;28;19915;-91
2022/04/06 03:59:21;;;;;;;;;;;;;;;;;;4967750;28;19918;-89
2022/04/06 04:02:03;;;;;;;;;;;;;;;;;;4967960;28;19976;-90
2022/04/06 04:04:28;;;;;;;;;;;;;;;;;;4948852;28;20216;-90
2022/04/06 04:07:11;;;;;;;;;;;;;;;;;;4964707;28;19922;-89
2022/04/06 04:09:42;;;;;;;;;;;;;;;;;;4979315;28;19922;-88
2022/04/06 04:12:08;;;;;;;;;;;;;;;;;;4938710;28;20028;-90
2022/04/06 04:14:44;;;;;;;;;;;;;;;;;;4974779;28;19914;-89
2022/04/06 04:17:10;;;;;;;;;;;;;;;;;;4966399;28;19922;-89
2022/04/06 04:19:35;;;;;;;;;;;;;;;;;;4948926;28;19914;-90
2022/04/06 04:22:10;;;;;;;;;;;;;;;;;;4954560;28;19915;-89
2022/04/06 04:24:55;;;;;;;;;;;;;;;;;;4954112;28;19934;-90
2022/04/06 04:27:30;;;;;;;;;;;;;;;;;;4972852;28;20290;-92
2022/04/06 04:29:55;;;;;;;;;;;;;;;;;;4955949;28;19933;-91
2022/04/06 04:32:22;;;;;;;;;;;;;;;;;;4948322;28;20484;-89
2022/04/06 04:34:51;;;;;;;;;;;;;;;;;;4962745;28;19934;-91
2022/04/06 04:37:20;;;;;;;;;;;;;;;;;;4947477;28;19942;-91
2022/04/06 04:39:46;;;;;;;;;;;;;;;;;;4975377;28;19914;-90
2022/04/06 04:42:14;;;;;;;;;;;;;;;;;;4962970;28;19922;-89
2022/04/06 04:44:41;;;;;;;;;;;;;;;;;;4967906;28;19923;-88
2022/04/06 04:47:06;;;;;;;;;;;;;;;;;;4963701;28;19929;-89
2022/04/06 04:49:43;;;;;;;;;;;;;;;;;;4965881;28;19964;-90
2022/04/06 04:52:08;;;;;;;;;;;;;;;;;;4962205;28;19998;-89
2022/04/06 04:54:41;;;;;;;;;;;;;;;;;;4964445;28;19937;-90
2022/04/06 04:57:09;;;;;;;;;;;;;;;;;;4966951;28;19923;-89
2022/04/06 04:59:35;;;;;;;;;;;;;;;;;;4957452;28;20434;-89
2022/04/06 05:02:10;;;;;;;;;;;;;;;;;;4975027;28;19941;-88
2022/04/06 05:04:45;;;;;;;;;;;;;;;;;;4958841;28;20342;-90
2022/04/06 05:10:46;;;;;;;;;;;;;;;;;;4957961;28;19945;-87
2022/04/06 05:13:17;;;;;;;;;;;;;;;;;;4970226;28;19922;-89
2022/04/06 05:16:00;;;;;;;;;;;;;;;;;;;;;
2022/04/06 05:18:49;;;;;;;;;;;;;;;;;;4957303;28;19949;-89
2022/04/06 05:21:36;;;;;;;;;;;;;;;;;;4949464;28;19929;-90
2022/04/06 05:24:04;;;;;;;;;;;;;;;;;;4963048;28;19914;-89
2022/04/06 05:26:36;;;;;;;;;;;;;;;;;;4958082;28;19919;-88
2022/04/06 05:29:12;;;;;;;;;;;;;;;;;;4959815;28;20768;-91
2022/04/06 05:31:47;;;;;;;;;;;;;;;;;;4970707;28;19919;-87
2022/04/06 05:34:18;;;;;;;;;;;;;;;;;;4959355;28;19925;-89
2022/04/06 05:37:02;;;;;;;;;;;;;;;;;;4960237;28;19914;-91
2022/04/06 05:39:39;;;;;;;;;;;;;;;;;;4945433;28;19922;-90
2022/04/06 05:42:09;;;;;;;;;;;;;;;;;;4952558;28;19914;-91
2022/04/06 05:45:03;;;;;;;;;;;;;;;;;;4958117;28;19910;-88
2022/04/06 05:47:32;;;;;;;;;;;;;;;;;;4952571;28;19954;-88
2022/04/06 05:50:04;;;;;;;;;;;;;;;;;;4958013;28;19933;-89
2022/04/06 05:52:35;;;;;;;;;;;;;;;;;;4956986;28;19946;-87
2022/04/06 05:55:04;;;;;;;;;;;;;;;;;;4954897;28;19915;-88
2022/04/06 05:57:35;;;;;;;;;;;;;;;;;;4937025;28;20068;-88
2022/04/06 06:00:33;;;;;;;;;;;;;;;;;;4959847;29;19926;-91
2022/04/06 06:02:58;;;;;;;;;;;;;;;;;;4959212;28;19972;-85
2022/04/06 06:05:23;;;;;;;;;;;;;;;;;;4941327;28;19915;-86
2022/04/06 06:07:56;;;;;;;;;;;;;;;;;;4939167;28;20318;-86
2022/04/06 06:10:22;;;;;;;;;;;;;;;;;;4961200;28;19918;-90
2022/04/06 06:12:49;;;;;;;;;;;;;;;;;;4941048;28;19978;-86
2022/04/06 06:15:15;;;;;;;;;;;;;;;;;;4953631;28;20345;-88
2022/04/06 06:17:41;;;;;;;;;;;;;;;;;;4945376;28;19958;-86
2022/04/06 06:20:09;;;;;;;;;;;;;;;;;;4973075;28;19929;-88
2022/04/06 06:22:38;;;;;;;;;;;;;;;;;;4951213;28;19914;-86
2022/04/06 06:25:05;;;;;;;;;;;;;;;;;;4955189;28;19949;-89
2022/04/06 06:27:30;;;;;;;;;;;;;;;;;;4940262;28;19922;-86
2022/04/06 06:29:56;;;;;;;;;;;;;;;;;;4958807;28;19915;-88
2022/04/06 06:32:23;;;;;;;;;;;;;;;;;;4966705;28;19923;-86
2022/04/06 06:34:48;;;;;;;;;;;;;;;;;;4953463;28;19925;-87
2022/04/06 06:37:13;;;;;;;;;;;;;;;;;;4970298;28;20240;-86
2022/04/06 06:39:42;;;;;;;;;;;;;;;;;;4957335;28;19929;-86
2022/04/06 06:42:07;;;;;;;;;;;;;;;;;;4961655;28;20025;-85
2022/04/06 06:44:32;;;;;;;;;;;;;;;;;;4973661;28;20295;-86
2022/04/06 06:46:58;;;;;;;;;;;;;;;;;;4952047;28;20048;-86
2022/04/06 06:49:33;;;;;;;;;;;;;;;;;;4955724;28;19922;-87
2022/04/06 06:51:58;;;;;;;;;;;;;;;;;;4972005;28;19918;-87
2022/04/06 06:54:52;;;;;;;;;;;;;;;;;;4961051;28;20257;-87
2022/04/06 06:57:18;;;;;;;;;;;;;;;;;;4957747;28;19943;-87
2022/04/06 06:59:43;;;;;;;;;;;;;;;;;;4960817;28;19926;-86
2022/04/06 07:02:27;;;;;;;;;;;;;;;;;;4959075;28;19957;-89
2022/04/06 07:05:01;;;;;;;;;;;;;;;;;;4941711;28;19972;-86
2022/04/06 07:07:27;;;;;;;;;;;;;;;;;;4972265;28;19914;-86
2022/04/06 07:09:55;;;;;;;;;;;;;;;;;;4952403;28;19922;-89
2022/04/06 07:12:39;;;;;;;;;;;;;;;;;;4973420;28;19921;-85
2022/04/06 07:15:05;;;;;;;;;;;;;;;;;;4955397;28;19922;-86
2022/04/06 07:17:30;;;;;;;;;;;;;;;;;;4967097;28;20008;-84
2022/04/06 07:19:56;;;;;;;;;;;;;;;;;;4977827;28;19914;-89
2022/04/06 07:22:21;;;;;;;;;;;;;;;;;;4960139;28;19946;-86
2022/04/06 07:24:47;;;;;;;;;;;;;;;;;;4958041;28;19925;-85
2022/04/06 07:27:13;;;;;;;;;;;;;;;;;;4988323;28;19919;-84
2022/04/06 07:29:47;;;;;;;;;;;;;;;;;;4972199;28;19940;-86
2022/04/06 07:32:12;;;;;;;;;;;;;;;;;;4962309;28;20031;-86
2022/04/06 07:35:09;;;;;;;;;;;;;;;;;;4969604;28;19918;-89
2022/04/06 07:37:35;;;;;;;;;;;;;;;;;;4971624;28;19996;-88
2022/04/06 07:40:20;;;;;;;;;;;;;;;;;;4970726;28;20017;-87
2022/04/06 07:43:05;;;;;;;;;;;;;;;;;;4954469;28;19986;-85
2022/04/06 07:45:51;;;;;;;;;;;;;;;;;;4953227;28;20233;-85
2022/04/06 07:48:16;;;;;;;;;;;;;;;;;;4945897;28;19925;-86
2022/04/06 07:50:44;;;;;;;;;;;;;;;;;;4943376;28;19914;-87
2022/04/06 07:53:33;;;;;;;;;;;;;;;;;;4961846;28;20014;-86
2022/04/06 07:55:58;;;;;;;;;;;;;;;;;;4968145;28;19914;-85
2022/04/06 07:58:26;;;;;;;;;;;;;;;;;;4936258;28;19918;-89
2022/04/06 08:00:52;;;;;;;;;;;;;;;;;;4953864;28;19914;-86
2022/04/06 08:03:21;;;;;;;;;;;;;;;;;;4954380;28;19914;-89
2022/04/06 08:05:46;;;;;;;;;;;;;;;;;;4948661;28;19985;-88
2022/04/06 08:08:15;;;;;;;;;;;;;;;;;;4941468;28;19958;-83
2022/04/06 08:10:43;;;;;;;;;;;;;;;;;;4973702;28;19929;-86
2022/04/06 08:13:18;;;;;;;;;;;;;;;;;;;;;
2022/04/06 08:15:47;;;;;;;;;;;;;;;;;;4959358;28;19937;-86
2022/04/06 08:18:12;;;;;;;;;;;;;;;;;;4951994;28;20340;-91
2022/04/06 08:20:46;;;;;;;;;;;;;;;;;;4956125;28;19985;-88
2022/04/06 08:23:12;;;;;;;;;;;;;;;;;;4952442;28;19914;-89
2022/04/06 08:25:38;;;;;;;;;;;;;;;;;;4957273;28;19934;-86
2022/04/06 08:28:06;;;;;;;;;;;;;;;;;;4968807;28;20383;-86
2022/04/06 08:30:39;;;;;;;;;;;;;;;;;;4955376;28;19921;-86
2022/04/06 08:33:04;;;;;;;;;;;;;;;;;;4958114;28;20262;-87
2022/04/06 08:35:30;;;;;;;;;;;;;;;;;;4953085;28;19973;-89
2022/04/06 08:37:56;;;;;;;;;;;;;;;;;;4952894;28;19954;-88
2022/04/06 08:40:22;;;;;;;;;;;;;;;;;;4953653;28;19922;-87
2022/04/06 08:42:48;;;;;;;;;;;;;;;;;;4941176;28;19944;-86
2022/04/06 08:45:13;;;;;;;;;;;;;;;;;;4956197;28;19922;-85
2022/04/06 08:47:39;;;;;;;;;;;;;;;;;;4953134;28;19925;-89
2022/04/06 08:50:05;;;;;;;;;;;;;;;;;;4955775;28;19919;-87
2022/04/06 08:52:34;;;;;;;;;;;;;;;;;;4952824;28;19919;-87
2022/04/06 08:54:59;;;;;;;;;;;;;;;;;;4940611;28;19914;-86
2022/04/06 08:57:25;;;;;;;;;;;;;;;;;;4957660;28;20114;-87
2022/04/06 09:00:06;;;;;;;;;;;;;;;;;;4970296;28;19922;-88
2022/04/06 09:02:31;;;;;;;;;;;;;;;;;;4968903;28;20010;-86
2022/04/06 09:05:00;;;;;;;;;;;;;;;;;;4938234;29;19942;-89
2022/04/06 09:07:25;;;;;;;;;;;;;;;;;;4952741;28;19977;-86
2022/04/06 09:10:12;;;;;;;;;;;;;;;;;;4957266;28;20202;-89
2022/04/06 09:12:38;;;;;;;;;;;;;;;;;;4953597;28;19926;-87
2022/04/06 09:15:03;;;;;;;;;;;;;;;;;;4935183;28;19919;-88
2022/04/06 09:17:29;;;;;;;;;;;;;;;;;;4950062;28;19928;-88
2022/04/06 09:19:56;;;;;;;;;;;;;;;;;;4963053;28;19922;-85
2022/04/06 09:22:22;;;;;;;;;;;;;;;;;;4953196;28;19946;-85
2022/04/06 09:24:56;;;;;;;;;;;;;;;;;;4966120;28;19925;-83
2022/04/06 09:27:27;;;;;;;;;;;;;;;;;;4952014;28;20009;-87
2022/04/06 09:29:53;;;;;;;;;;;;;;;;;;4966520;28;19942;-85
2022/04/06 09:32:19;;;;;;;;;;;;;;;;;;4964287;28;20005;-85
2022/04/06 09:34:46;;;;;;;;;;;;;;;;;;4984277;28;19918;-85
2022/04/06 09:37:11;;;;;;;;;;;;;;;;;;4968522;28;19922;-84
2022/04/06 09:39:39;;;;;;;;;;;;;;;;;;4961206;28;19915;-85
2022/04/06 09:42:04;;;;;;;;;;;;;;;;;;4967375;28;20464;-87
2022/04/06 09:50:03;;;;;;;;;;;;;;;;;;4964497;28;19924;-87
2022/04/06 09:52:30;;;;;;;;;;;;;;;;;;4947023;28;19923;-86
2022/04/06 09:55:03;;;;;;;;;;;;;;;;;;4974457;28;20020;-85
2022/04/06 09:57:28;;;;;;;;;;;;;;;;;;4957952;28;19992;-88
2022/04/06 09:59:53;;;;;;;;;;;;;;;;;;4957147;28;20001;-85
2022/04/06 10:02:22;;;;;;;;;;;;;;;;;;4958101;28;19915;-85
2022/04/06 10:04:50;;;;;;;;;;;;;;;;;;4947763;28;20245;-85
2022/04/06 10:07:15;;;;;;;;;;;;;;;;;;4952347;29;19914;-87
2022/04/06 10:09:41;;;;;;;;;;;;;;;;;;4981583;28;19922;-87
2022/04/06 10:12:10;;;;;;;;;;;;;;;;;;4954560;29;19926;-86
2022/04/06 10:14:36;;;;;;;;;;;;;;;;;;4972345;28;19922;-86
2022/04/06 10:17:02;;;;;;;;;;;;;;;;;;4971307;28;19915;-84
2022/04/06 10:19:31;;;;;;;;;;;;;;;;;;4963655;29;19946;-83
2022/04/06 10:21:59;;;;;;;;;;;;;;;;;;4955289;28;20348;-86
2022/04/06 10:24:24;;;;;;;;;;;;;;;;;;4951544;29;19915;-86
2022/04/06 10:26:58;;;;;;;;;;;;;;;;;;4990642;28;19914;-85
2022/04/06 10:29:28;;;;;;;;;;;;;;;;;;4968103;28;19991;-87
2022/04/06 10:31:56;;;;;;;;;;;;;;;;;;4978763;28;19977;-82
2022/04/06 10:34:25;;;;;;;;;;;;;;;;;;4983897;28;19977;-85
2022/04/06 10:36:50;;;;;;;;;;;;;;;;;;4962810;28;19919;-84
2022/04/06 10:39:20;;;;;;;;;;;;;;;;;;4973966;28;19918;-88
2022/04/06 10:41:46;;;;;;;;;;;;;;;;;;4971880;28;19962;-86
2022/04/06 10:44:12;;;;;;;;;;;;;;;;;;4969660;28;19952;-87
2022/04/06 10:46:47;;;;;;;;;;;;;;;;;;4968206;28;19919;-88
2022/04/06 10:49:15;;;;;;;;;;;;;;;;;;4969407;28;19959;-88
2022/04/06 10:52:00;;;;;;;;;;;;;;;;;;4919084;29;19942;-87
2022/04/06 10:54:53;;;;;;;;;;;;;;;;;;4924471;29;19922;-87
2022/04/06 10:57:19;;;;;;;;;;;;;;;;;;4921797;29;20052;-87
2022/04/06 10:59:44;;;;;;;;;;;;;;;;;;4908914;29;19918;-89
2022/04/06 11:02:12;;;;;;;;;;;;;;;;;;4929262;29;20013;-86
2022/04/06 11:04:52;;;;;;;;;;;;;;;;;;4922177;29;19922;-87
2022/04/06 11:10:06;;;;;;;;;;;;;;;;;;4940247;29;19915;-88
2022/04/06 11:10:14;;;;;;;;;;;;;;;;;;4935608;29;20103;-86
2022/04/06 11:12:39;;;;;;;;;;;;;;;;;;4919873;29;20014;-88
2022/04/06 11:15:05;;;;;;;;;;;;;;;;;;4921254;29;20385;-86
2022/04/06 11:17:37;;;;;;;;;;;;;;;;;;4914829;29;20316;-86
2022/04/06 11:20:03;;;;;;;;;;;;;;;;;;4932388;29;19939;-87
2022/04/06 11:22:28;;;;;;;;;;;;;;;;;;4951327;28;19914;-88
2022/04/06 11:24:57;;;;;;;;;;;;;;;;;;4966043;28;19918;-91
2022/04/06 11:27:26;;;;;;;;;;;;;;;;;;4947687;28;19998;-87
2022/04/06 11:29:51;;;;;;;;;;;;;;;;;;4963825;28;19915;-86
2022/04/06 11:32:20;;;;;;;;;;;;;;;;;;4945755;28;19928;-85
2022/04/06 11:34:45;;;;;;;;;;;;;;;;;;4945298;28;19915;-87
2022/04/06 11:37:15;;;;;;;;;;;;;;;;;;4954677;28;19915;-90
2022/04/06 11:39:40;;;;;;;;;;;;;;;;;;4962477;28;19919;-87
2022/04/06 11:42:06;;;;;;;;;;;;;;;;;;4971103;28;20051;-87
2022/04/06 11:44:32;;;;;;;;;;;;;;;;;;4966844;28;19914;-89
2022/04/06 11:46:57;;;;;;;;;;;;;;;;;;4968716;28;19923;-89
2022/04/06 11:49:25;;;;;;;;;;;;;;;;;;4953184;28;20248;-89
2022/04/06 11:51:56;;;;;;;;;;;;;;;;;;4951620;28;20020;-88
2022/04/06 11:54:22;;;;;;;;;;;;;;;;;;4960373;28;19973;-89
2022/04/06 11:56:47;;;;;;;;;;;;;;;;;;4948431;28;19926;-88
2022/04/06 11:59:16;;;;;;;;;;;;;;;;;;4970652;28;19957;-88
2022/04/06 12:01:42;;;;;;;;;;;;;;;;;;4950372;28;20044;-89
2022/04/06 12:04:16;;;;;;;;;;;;;;;;;;4949860;28;19918;-84
2022/04/06 12:06:41;;;;;;;;;;;;;;;;;;4971873;28;19986;-84
2022/04/06 12:09:17;;;;;;;;;;;;;;;;;;4977252;28;19927;-85
2022/04/06 12:11:42;;;;;;;;;;;;;;;;;;4954514;28;20349;-90
2022/04/06 12:14:24;;;;;;;;;;;;;;;;;;4953374;28;20588;-87
2022/04/06 12:16:49;;;;;;;;;;;;;;;;;;4957624;28;19918;-88
2022/04/06 12:19:28;;;;;;;;;;;;;;;;;;;;;
2022/04/06 12:21:59;;;;;;;;;;;;;;;;;;4954704;28;19968;-88
2022/04/06 12:24:27;;;;;;;;;;;;;;;;;;4954524;28;19993;-89
2022/04/06 12:27:12;;;;;;;;;;;;;;;;;;4973661;28;19961;-89
2022/04/06 12:29:46;;;;;;;;;;;;;;;;;;4951718;28;19922;-87
2022/04/06 12:32:14;;;;;;;;;;;;;;;;;;4957232;28;19929;-88
2022/04/06 12:34:40;;;;;;;;;;;;;;;;;;4956869;28;19914;-86
2022/04/06 12:37:32;;;;;;;;;;;;;;;;;;4946779;28;19915;-89
2022/04/06 12:39:59;;;;;;;;;;;;;;;;;;4953352;28;19914;-87
2022/04/06 12:42:32;;;;;;;;;;;;;;;;;;4960600;28;19936;-85
2022/04/06 12:45:02;;;;;;;;;;;;;;;;;;4956390;28;19977;-90
2022/04/06 12:47:36;;;;;;;;;;;;;;;;;;4939844;28;20024;-88
2022/04/06 12:50:02;;;;;;;;;;;;;;;;;;4957109;28;19918;-88
2022/04/06 12:52:28;;;;;;;;;;;;;;;;;;4957474;28;19934;-86
2022/04/06 12:55:00;;;;;;;;;;;;;;;;;;4975273;28;19931;-87
2022/04/06 12:57:26;;;;;;;;;;;;;;;;;;4954790;28;19918;-90
2022/04/06 12:59:58;;;;;;;;;;;;;;;;;;4973346;28;20355;-86
2022/04/06 13:02:23;;;;;;;;;;;;;;;;;;4958198;28;19926;-86
2022/04/06 13:04:49;;;;;;;;;;;;;;;;;;4956763;28;19922;-87
2022/04/06 13:07:20;;;;;;;;;;;;;;;;;;4942456;28;19938;-87
2022/04/06 13:09:45;;;;;;;;;;;;;;;;;;4956299;28;19915;-89
2022/04/06 13:12:12;;;;;;;;;;;;;;;;;;4955689;28;20029;-88
2022/04/06 13:18:00;;;;;;;;;;;;;;;;;;4962831;28;20400;-87
2022/04/06 13:20:30;;;;;;;;;;;;;;;;;;4958079;28;20442;-87
2022/04/06 13:22:59;;;;;;;;;;;;;;;;;;4959058;28;22768;-87
2022/04/06 13:25:24;;;;;;;;;;;;;;;;;;4973477;28;19946;-87
2022/04/06 13:27:50;;;;;;;;;;;;;;;;;;4946610;29;19934;-87
2022/04/06 13:30:15;;;;;;;;;;;;;;;;;;4946112;28;20065;-86
2022/04/06 13:32:41;;;;;;;;;;;;;;;;;;4971731;28;20121;-87
2022/04/06 13:35:06;;;;;;;;;;;;;;;;;;4958495;28;19921;-86
2022/04/06 13:37:32;;;;;;;;;;;;;;;;;;4959887;28;19933;-87
2022/04/06 13:40:02;;;;;;;;;;;;;;;;;;4964008;28;19932;-87
2022/04/06 13:42:27;;;;;;;;;;;;;;;;;;4956743;28;19950;-85
2022/04/06 13:44:53;;;;;;;;;;;;;;;;;;4954935;28;19933;-86
2022/04/06 13:47:19;;;;;;;;;;;;;;;;;;4956088;28;19915;-85
2022/04/06 13:49:45;;;;;;;;;;;;;;;;;;4954919;28;20050;-87
2022/04/06 13:52:13;;;;;;;;;;;;;;;;;;4969806;28;19961;-87
2022/04/06 13:54:40;;;;;;;;;;;;;;;;;;4957309;28;19930;-86
2022/04/06 13:57:09;;;;;;;;;;;;;;;;;;4944720;28;19929;-86
2022/04/06 13:59:35;;;;;;;;;;;;;;;;;;4938817;28;19915;-89
2022/04/06 14:02:01;;;;;;;;;;;;;;;;;;4953750;28;19925;-87
2022/04/06 14:04:30;;;;;;;;;;;;;;;;;;4953757;28;19927;-86
2022/04/06 14:06:57;;;;;;;;;;;;;;;;;;4941808;28;19986;-88
2022/04/06 14:09:22;;;;;;;;;;;;;;;;;;4936569;28;19950;-87
2022/04/06 14:11:49;;;;;;;;;;;;;;;;;;4955871;28;20025;-86
2022/04/06 14:14:16;;;;;;;;;;;;;;;;;;4958339;28;20453;-87
2022/04/06 14:16:41;;;;;;;;;;;;;;;;;;4958475;28;19919;-86
2022/04/06 14:19:17;;;;;;;;;;;;;;;;;;4969177;28;19915;-88
2022/04/06 14:21:43;;;;;;;;;;;;;;;;;;4973057;28;19954;-88
2022/04/06 14:24:09;;;;;;;;;;;;;;;;;;4958211;28;20320;-88
2022/04/06 14:26:34;;;;;;;;;;;;;;;;;;4942133;28;19925;-89
2022/04/06 14:29:17;;;;;;;;;;;;;;;;;;4948715;28;19914;-89
2022/04/06 14:35:23;;;;;;;;;;;;;;;;;;4898793;29;20006;-87
2022/04/06 14:37:52;;;;;;;;;;;;;;;;;;4898968;29;20011;-86
2022/04/06 14:40:27;;;;;;;;;;;;;;;;;;4898893;29;19915;-88
2022/04/06 14:42:56;;;;;;;;;;;;;;;;;;4914989;28;19914;-88
2022/04/06 14:45:21;;;;;;;;;;;;;;;;;;4935549;28;19919;-87
2022/04/06 14:47:46;;;;;;;;;;;;;;;;;;4963627;28;19915;-87
2022/04/06 14:50:15;;;;;;;;;;;;;;;;;;4960234;28;19990;-85
2022/04/06 14:52:40;;;;;;;;;;;;;;;;;;4964757;28;19953;-88
2022/04/06 14:55:07;;;;;;;;;;;;;;;;;;4957758;28;20362;-86
2022/04/06 14:57:36;;;;;;;;;;;;;;;;;;4943734;28;20022;-85
2022/04/06 15:00:03;;;;;;;;;;;;;;;;;;4962823;28;19950;-88
2022/04/06 15:02:34;;;;;;;;;;;;;;;;;;4959083;28;20355;-86
2022/04/06 15:04:59;;;;;;;;;;;;;;;;;;4960213;28;20063;-87
2022/04/06 15:07:27;;;;;;;;;;;;;;;;;;4958513;28;19956;-88
2022/04/06 15:09:54;;;;;;;;;;;;;;;;;;4971809;28;19918;-87
2022/04/06 15:12:21;;;;;;;;;;;;;;;;;;4963233;28;19986;-87
2022/04/06 15:14:49;;;;;;;;;;;;;;;;;;4958228;28;19981;-86
2022/04/06 15:17:15;;;;;;;;;;;;;;;;;;4955710;28;20716;-86
2022/04/06 15:19:45;;;;;;;;;;;;;;;;;;4957295;28;19946;-88
2022/04/06 15:22:11;;;;;;;;;;;;;;;;;;4956033;28;19945;-88
2022/04/06 15:24:38;;;;;;;;;;;;;;;;;;4940911;28;20371;-86
2022/04/06 15:27:09;;;;;;;;;;;;;;;;;;4954617;28;20015;-90
2022/04/06 15:29:36;;;;;;;;;;;;;;;;;;4952553;28;19914;-89
2022/04/06 15:32:01;;;;;;;;;;;;;;;;;;4954640;28;21526;-88
2022/04/06 15:37:56;;;;;;;;;;;;;;;;;;4962385;28;19926;-88
2022/04/06 15:40:33;;;;;;;;;;;;;;;;;;;;;
2022/04/06 15:43:50;;;;;;;;;;;;;;;;;;4937049;29;19989;-88
2022/04/06 15:46:36;;;;;;;;;;;;;;;;;;4911905;29;19915;-89
2022/04/06 15:49:04;;;;;;;;;;;;;;;;;;4897703;29;19922;-91
2022/04/06 15:57:40;;;;;;;;;;;;;;;;;;4917124;29;19919;-87
2022/04/06 16:00:07;;;;;;;;;;;;;;;;;;4920440;29;19961;-87
2022/04/06 16:02:34;;;;;;;;;;;;;;;;;;4906873;29;20604;-87
2022/04/06 16:05:00;;;;;;;;;;;;;;;;;;4918153;29;20002;-86
2022/04/06 16:07:38;;;;;;;;;;;;;;;;;;4915955;29;19947;-85
2022/04/06 16:13:03;;;;;;;;;;;;;;;;;;4917702;29;19930;-85
2022/04/06 16:18:07;;;;;;;;;;;;;;;;;;4953232;28;19918;-86
2022/04/06 16:20:33;;;;;;;;;;;;;;;;;;4945615;28;19941;-87
2022/04/06 16:22:59;;;;;;;;;;;;;;;;;;4946356;28;19915;-84
2022/04/06 16:25:25;;;;;;;;;;;;;;;;;;4942831;28;20066;-85
2022/04/06 16:27:50;;;;;;;;;;;;;;;;;;4958254;28;20020;-87
2022/04/06 16:30:15;;;;;;;;;;;;;;;;;;4950691;28;19978;-87
2022/04/06 16:32:41;;;;;;;;;;;;;;;;;;4956098;28;19942;-88
2022/04/06 16:35:06;;;;;;;;;;;;;;;;;;4945421;28;19933;-90
2022/04/06 16:37:31;;;;;;;;;;;;;;;;;;4938930;28;19918;-89
2022/04/06 16:39:56;;;;;;;;;;;;;;;;;;4955575;28;19918;-87
2022/04/06 16:42:22;;;;;;;;;;;;;;;;;;4956503;28;19915;-87
2022/04/06 16:44:47;;;;;;;;;;;;;;;;;;4975054;28;19914;-88
2022/04/06 16:47:13;;;;;;;;;;;;;;;;;;4943180;28;19932;-88
2022/04/06 16:55:29;;;;;;;;;;;;;;;;;;4914923;29;19919;-84
2022/04/06 16:58:02;;;;;;;;;;;;;;;;;;4895828;29;19930;-85
2022/04/06 17:00:28;;;;;;;;;;;;;;;;;;4882159;29;20535;-88
2022/04/06 17:02:55;;;;;;;;;;;;;;;;;;4896010;29;19970;-86
2022/04/06 17:05:21;;;;;;;;;;;;;;;;;;4896609;29;19947;-88
2022/04/06 17:07:46;;;;;;;;;;;;;;;;;;4915302;29;19926;-88
2022/04/06 17:10:12;;;;;;;;;;;;;;;;;;4932384;28;19981;-86
2022/04/06 17:12:39;;;;;;;;;;;;;;;;;;4919402;29;19927;-88
2022/04/06 17:18:00;;;;;;;;;;;;;;;;;;4928153;29;20349;-86
2022/04/06 17:20:29;;;;;;;;;;;;;;;;;;4947137;28;19915;-89
2022/04/06 17:22:56;;;;;;;;;;;;;;;;;;4948955;29;20313;-88
2022/04/06 17:25:23;;;;;;;;;;;;;;;;;;4933205;29;19922;-87
2022/04/06 17:27:50;;;;;;;;;;;;;;;;;;4941094;29;20421;-88
2022/04/06 17:30:32;;;;;;;;;;;;;;;;;;4945774;29;20350;-89
2022/04/06 17:33:03;;;;;;;;;;;;;;;;;;4941404;28;19923;-88
2022/04/06 17:35:31;;;;;;;;;;;;;;;;;;4989001;28;19970;-86
2022/04/06 17:38:02;;;;;;;;;;;;;;;;;;4976841;28;19962;-86
2022/04/06 17:40:30;;;;;;;;;;;;;;;;;;4956480;28;19925;-85
2022/04/06 17:43:17;;;;;;;;;;;;;;;;;;4952699;29;19926;-88
2022/04/06 17:45:48;;;;;;;;;;;;;;;;;;4913360;29;19919;-88
2022/04/06 17:51:03;;;;;;;;;;;;;;;;;;4940632;29;19985;-87
2022/04/06 17:53:35;;;;;;;;;;;;;;;;;;4924351;29;20032;-87
2022/04/06 17:56:21;;;;;;;;;;;;;;;;;;4910213;29;19942;-89
2022/04/06 17:59:00;;;;;;;;;;;;;;;;;;4939324;29;19931;-91